sensor_id;sensor_type;location;lat;lon;timestamp;temperature;humidity
2010;DHT22;1008;47.404;8.502;2022-07-10T00:00:00;21.60;94.50
2010;DHT22;1008;47.404;8.502;2022-07-10T00:02:28;21.60;94.50
2010;DHT22;1008;47.404;8.502;2022-07-10T00:04:54;21.70;94.60
2010;DHT22;1008;47.404;8.502;2022-07-10T00:07:21;21.70;94.20
2010;DHT22;1008;47.404;8.502;2022-07-10T00:09:48;21.70;94.20
2010;DHT22;1008;47.404;8.502;2022-07-10T00:12:14;21.70;94.10
2010;DHT22;1008;47.404;8.502;2022-07-10T00:14:41;21.70;94.20
2010;DHT22;1008;47.404;8.502;2022-07-10T00:17:08;21.70;94.00
2010;DHT22;1008;47.404;8.502;2022-07-10T00:19:36;21.70;93.80
2010;DHT22;1008;47.404;8.502;2022-07-10T00:22:03;21.60;93.80
2010;DHT22;1008;47.404;8.502;2022-07-10T00:24:30;21.70;93.80
2010;DHT22;1008;47.404;8.502;2022-07-10T00:26:58;21.70;93.60
2010;DHT22;1008;47.404;8.502;2022-07-10T00:29:25;21.70;93.70
2010;DHT22;1008;47.404;8.502;2022-07-10T00:31:51;21.60;93.60
2010;DHT22;1008;47.404;8.502;2022-07-10T00:34:18;21.60;93.80
2010;DHT22;1008;47.404;8.502;2022-07-10T00:36:46;21.60;93.90
2010;DHT22;1008;47.404;8.502;2022-07-10T00:39:13;21.60;94.00
2010;DHT22;1008;47.404;8.502;2022-07-10T00:41:40;21.70;94.10
2010;DHT22;1008;47.404;8.502;2022-07-10T00:44:06;21.60;94.20
2010;DHT22;1008;47.404;8.502;2022-07-10T00:46:33;21.70;94.30
2010;DHT22;1008;47.404;8.502;2022-07-10T00:49:00;21.80;93.60
2010;DHT22;1008;47.404;8.502;2022-07-10T00:51:29;21.80;93.30
2010;DHT22;1008;47.404;8.502;2022-07-10T00:53:57;21.80;93.20
2010;DHT22;1008;47.404;8.502;2022-07-10T00:56:27;21.60;93.40
2010;DHT22;1008;47.404;8.502;2022-07-10T00:58:54;21.60;93.90
2010;DHT22;1008;47.404;8.502;2022-07-10T01:01:21;21.70;93.80
2010;DHT22;1008;47.404;8.502;2022-07-10T01:03:49;21.60;94.10
2010;DHT22;1008;47.404;8.502;2022-07-10T01:06:17;21.70;94.70
2010;DHT22;1008;47.404;8.502;2022-07-10T01:08:45;21.60;95.50
2010;DHT22;1008;47.404;8.502;2022-07-10T01:11:13;21.50;95.50
2010;DHT22;1008;47.404;8.502;2022-07-10T01:13:41;21.60;95.50
2010;DHT22;1008;47.404;8.502;2022-07-10T01:16:08;21.50;95.70
2010;DHT22;1008;47.404;8.502;2022-07-10T01:18:35;21.40;96.30
2010;DHT22;1008;47.404;8.502;2022-07-10T01:21:03;21.50;96.80
2010;DHT22;1008;47.404;8.502;2022-07-10T01:23:30;21.50;96.70
2010;DHT22;1008;47.404;8.502;2022-07-10T01:25:57;21.20;97.00
2010;DHT22;1008;47.404;8.502;2022-07-10T01:28:25;21.20;97.30
2010;DHT22;1008;47.404;8.502;2022-07-10T01:30:54;21.10;97.10
2010;DHT22;1008;47.404;8.502;2022-07-10T01:33:22;21.00;97.70
2010;DHT22;1008;47.404;8.502;2022-07-10T01:35:48;20.90;97.80
2010;DHT22;1008;47.404;8.502;2022-07-10T01:38:16;20.60;98.20
2010;DHT22;1008;47.404;8.502;2022-07-10T01:40:43;20.80;98.50
2010;DHT22;1008;47.404;8.502;2022-07-10T01:43:10;20.90;98.80
2010;DHT22;1008;47.404;8.502;2022-07-10T01:45:37;20.90;99.30
2010;DHT22;1008;47.404;8.502;2022-07-10T01:48:03;20.70;99.80
2010;DHT22;1008;47.404;8.502;2022-07-10T01:50:30;20.70;99.90
2010;DHT22;1008;47.404;8.502;2022-07-10T01:52:57;20.70;99.90
2010;DHT22;1008;47.404;8.502;2022-07-10T01:55:25;20.70;99.90
2010;DHT22;1008;47.404;8.502;2022-07-10T01:57:52;20.80;99.90
2010;DHT22;1008;47.404;8.502;2022-07-10T02:00:19;20.70;99.90
2010;DHT22;1008;47.404;8.502;2022-07-10T02:02:46;20.70;99.90
2010;DHT22;1008;47.404;8.502;2022-07-10T02:05:32;20.60;99.90
2010;DHT22;1008;47.404;8.502;2022-07-10T02:07:58;20.60;99.90
2010;DHT22;1008;47.404;8.502;2022-07-10T02:10:26;20.60;99.90
2010;DHT22;1008;47.404;8.502;2022-07-10T02:12:53;20.50;99.90
2010;DHT22;1008;47.404;8.502;2022-07-10T02:15:21;20.50;99.90
2010;DHT22;1008;47.404;8.502;2022-07-10T02:17:48;20.50;99.90
2010;DHT22;1008;47.404;8.502;2022-07-10T02:20:15;20.50;99.90
2010;DHT22;1008;47.404;8.502;2022-07-10T02:22:42;20.50;99.90
2010;DHT22;1008;47.404;8.502;2022-07-10T02:25:09;20.40;99.90
2010;DHT22;1008;47.404;8.502;2022-07-10T02:27:37;20.40;99.90
2010;DHT22;1008;47.404;8.502;2022-07-10T02:30:05;20.50;99.90
2010;DHT22;1008;47.404;8.502;2022-07-10T02:32:32;20.30;99.90
2010;DHT22;1008;47.404;8.502;2022-07-10T02:34:59;20.30;99.90
2010;DHT22;1008;47.404;8.502;2022-07-10T02:37:25;20.40;99.90
2010;DHT22;1008;47.404;8.502;2022-07-10T02:39:52;20.20;99.90
2010;DHT22;1008;47.404;8.502;2022-07-10T02:42:19;20.20;99.90
2010;DHT22;1008;47.404;8.502;2022-07-10T02:44:47;20.10;99.90
2010;DHT22;1008;47.404;8.502;2022-07-10T02:47:13;20.00;99.90
2010;DHT22;1008;47.404;8.502;2022-07-10T02:49:40;20.00;99.90
2010;DHT22;1008;47.404;8.502;2022-07-10T02:52:07;20.10;99.90
2010;DHT22;1008;47.404;8.502;2022-07-10T02:54:34;20.00;99.90
2010;DHT22;1008;47.404;8.502;2022-07-10T02:57:00;19.90;99.90
2010;DHT22;1008;47.404;8.502;2022-07-10T02:59:27;19.90;99.90
2010;DHT22;1008;47.404;8.502;2022-07-10T03:01:55;20.10;99.90
2010;DHT22;1008;47.404;8.502;2022-07-10T03:04:22;20.10;99.90
2010;DHT22;1008;47.404;8.502;2022-07-10T03:06:49;20.20;99.90
2010;DHT22;1008;47.404;8.502;2022-07-10T03:09:16;20.00;99.90
2010;DHT22;1008;47.404;8.502;2022-07-10T03:11:42;20.10;99.90
2010;DHT22;1008;47.404;8.502;2022-07-10T03:14:09;20.10;99.90
2010;DHT22;1008;47.404;8.502;2022-07-10T03:16:36;20.00;99.90
2010;DHT22;1008;47.404;8.502;2022-07-10T03:19:04;20.10;99.90
2010;DHT22;1008;47.404;8.502;2022-07-10T03:21:31;19.90;99.90
2010;DHT22;1008;47.404;8.502;2022-07-10T03:23:58;19.90;99.90
2010;DHT22;1008;47.404;8.502;2022-07-10T03:26:24;19.80;99.90
2010;DHT22;1008;47.404;8.502;2022-07-10T03:28:52;19.80;99.90
2010;DHT22;1008;47.404;8.502;2022-07-10T03:31:18;19.80;99.90
2010;DHT22;1008;47.404;8.502;2022-07-10T03:33:45;19.90;99.90
2010;DHT22;1008;47.404;8.502;2022-07-10T03:36:13;20.00;99.90
2010;DHT22;1008;47.404;8.502;2022-07-10T03:38:40;19.90;99.90
2010;DHT22;1008;47.404;8.502;2022-07-10T03:41:07;19.90;99.90
2010;DHT22;1008;47.404;8.502;2022-07-10T03:43:33;19.70;99.90
2010;DHT22;1008;47.404;8.502;2022-07-10T03:46:00;19.80;99.90
2010;DHT22;1008;47.404;8.502;2022-07-10T03:48:27;19.70;99.90
2010;DHT22;1008;47.404;8.502;2022-07-10T03:50:53;19.60;99.90
2010;DHT22;1008;47.404;8.502;2022-07-10T03:53:22;19.60;99.90
2010;DHT22;1008;47.404;8.502;2022-07-10T03:55:48;19.50;99.90
2010;DHT22;1008;47.404;8.502;2022-07-10T03:58:15;19.50;99.90
2010;DHT22;1008;47.404;8.502;2022-07-10T04:00:41;19.50;99.90
2010;DHT22;1008;47.404;8.502;2022-07-10T04:03:09;19.30;99.90
2010;DHT22;1008;47.404;8.502;2022-07-10T04:05:36;19.40;99.90
2010;DHT22;1008;47.404;8.502;2022-07-10T04:08:04;19.40;99.90
2010;DHT22;1008;47.404;8.502;2022-07-10T04:10:32;19.50;99.90
2010;DHT22;1008;47.404;8.502;2022-07-10T04:12:59;19.50;99.90
2010;DHT22;1008;47.404;8.502;2022-07-10T04:15:26;19.40;99.90
2010;DHT22;1008;47.404;8.502;2022-07-10T04:17:53;19.40;99.90
2010;DHT22;1008;47.404;8.502;2022-07-10T04:20:20;19.40;99.90
2010;DHT22;1008;47.404;8.502;2022-07-10T04:22:47;19.50;99.90
2010;DHT22;1008;47.404;8.502;2022-07-10T04:25:14;19.30;99.90
2010;DHT22;1008;47.404;8.502;2022-07-10T04:27:42;19.20;99.90
2010;DHT22;1008;47.404;8.502;2022-07-10T04:30:10;19.30;99.90
2010;DHT22;1008;47.404;8.502;2022-07-10T04:32:36;19.40;99.90
2010;DHT22;1008;47.404;8.502;2022-07-10T04:35:04;19.60;99.90
2010;DHT22;1008;47.404;8.502;2022-07-10T04:37:31;19.40;99.90
2010;DHT22;1008;47.404;8.502;2022-07-10T04:39:59;19.30;99.90
2010;DHT22;1008;47.404;8.502;2022-07-10T04:42:26;19.30;99.90
2010;DHT22;1008;47.404;8.502;2022-07-10T04:44:54;19.40;99.90
2010;DHT22;1008;47.404;8.502;2022-07-10T04:47:21;19.30;99.90
2010;DHT22;1008;47.404;8.502;2022-07-10T04:49:48;19.40;99.90
2010;DHT22;1008;47.404;8.502;2022-07-10T04:52:15;19.50;99.90
2010;DHT22;1008;47.404;8.502;2022-07-10T04:54:41;19.50;99.90
2010;DHT22;1008;47.404;8.502;2022-07-10T04:57:08;19.60;99.90
2010;DHT22;1008;47.404;8.502;2022-07-10T04:59:35;19.60;99.90
2010;DHT22;1008;47.404;8.502;2022-07-10T05:02:03;19.70;99.90
2010;DHT22;1008;47.404;8.502;2022-07-10T05:04:30;19.70;99.90
2010;DHT22;1008;47.404;8.502;2022-07-10T05:06:57;19.50;99.90
2010;DHT22;1008;47.404;8.502;2022-07-10T05:09:23;19.60;99.90
2010;DHT22;1008;47.404;8.502;2022-07-10T05:11:50;19.80;99.90
2010;DHT22;1008;47.404;8.502;2022-07-10T05:14:17;19.80;99.90
2010;DHT22;1008;47.404;8.502;2022-07-10T05:16:44;19.80;99.90
2010;DHT22;1008;47.404;8.502;2022-07-10T05:19:12;19.90;99.90
2010;DHT22;1008;47.404;8.502;2022-07-10T05:21:38;19.90;99.90
2010;DHT22;1008;47.404;8.502;2022-07-10T05:24:05;19.90;99.90
2010;DHT22;1008;47.404;8.502;2022-07-10T05:26:32;20.00;99.90
2010;DHT22;1008;47.404;8.502;2022-07-10T05:28:59;20.00;99.90
2010;DHT22;1008;47.404;8.502;2022-07-10T05:31:26;20.00;99.90
2010;DHT22;1008;47.404;8.502;2022-07-10T05:33:52;20.20;99.90
2010;DHT22;1008;47.404;8.502;2022-07-10T05:36:20;20.30;99.90
2010;DHT22;1008;47.404;8.502;2022-07-10T05:38:47;20.40;99.90
2010;DHT22;1008;47.404;8.502;2022-07-10T05:41:14;20.40;99.90
2010;DHT22;1008;47.404;8.502;2022-07-10T05:43:41;20.40;99.90
2010;DHT22;1008;47.404;8.502;2022-07-10T05:46:07;20.50;99.90
2010;DHT22;1008;47.404;8.502;2022-07-10T05:48:34;20.60;99.90
2010;DHT22;1008;47.404;8.502;2022-07-10T05:51:01;20.90;99.90
2010;DHT22;1008;47.404;8.502;2022-07-10T05:53:29;20.60;99.90
2010;DHT22;1008;47.404;8.502;2022-07-10T05:55:59;20.40;99.90
2010;DHT22;1008;47.404;8.502;2022-07-10T05:58:26;20.50;99.90
2010;DHT22;1008;47.404;8.502;2022-07-10T06:00:53;20.50;99.90
2010;DHT22;1008;47.404;8.502;2022-07-10T06:03:20;20.50;99.90
2010;DHT22;1008;47.404;8.502;2022-07-10T06:05:47;20.40;99.90
2010;DHT22;1008;47.404;8.502;2022-07-10T06:08:13;20.40;99.90
2010;DHT22;1008;47.404;8.502;2022-07-10T06:10:41;20.60;99.90
2010;DHT22;1008;47.404;8.502;2022-07-10T06:13:09;20.40;99.90
2010;DHT22;1008;47.404;8.502;2022-07-10T06:15:36;20.50;99.90
2010;DHT22;1008;47.404;8.502;2022-07-10T06:18:03;20.50;99.90
2010;DHT22;1008;47.404;8.502;2022-07-10T06:20:30;20.40;99.90
2010;DHT22;1008;47.404;8.502;2022-07-10T06:22:57;20.40;99.90
2010;DHT22;1008;47.404;8.502;2022-07-10T06:25:24;20.50;99.90
2010;DHT22;1008;47.404;8.502;2022-07-10T06:27:52;20.50;99.90
2010;DHT22;1008;47.404;8.502;2022-07-10T06:30:19;20.70;99.90
2010;DHT22;1008;47.404;8.502;2022-07-10T06:32:46;20.60;99.90
2010;DHT22;1008;47.404;8.502;2022-07-10T06:35:12;20.70;99.90
2010;DHT22;1008;47.404;8.502;2022-07-10T06:37:39;20.90;99.90
2010;DHT22;1008;47.404;8.502;2022-07-10T06:40:07;21.00;99.90
2010;DHT22;1008;47.404;8.502;2022-07-10T06:42:36;20.90;99.90
2010;DHT22;1008;47.404;8.502;2022-07-10T06:45:05;20.90;99.90
2010;DHT22;1008;47.404;8.502;2022-07-10T06:47:32;21.00;99.90
2010;DHT22;1008;47.404;8.502;2022-07-10T06:50:16;21.10;99.90
2010;DHT22;1008;47.404;8.502;2022-07-10T06:52:43;21.30;99.90
2010;DHT22;1008;47.404;8.502;2022-07-10T06:55:10;21.40;99.90
2010;DHT22;1008;47.404;8.502;2022-07-10T06:57:38;21.50;99.90
2010;DHT22;1008;47.404;8.502;2022-07-10T07:00:07;21.60;99.90
2010;DHT22;1008;47.404;8.502;2022-07-10T07:02:34;21.60;99.90
2010;DHT22;1008;47.404;8.502;2022-07-10T07:05:01;21.50;99.90
2010;DHT22;1008;47.404;8.502;2022-07-10T07:07:28;21.50;99.90
2010;DHT22;1008;47.404;8.502;2022-07-10T07:09:55;21.40;99.90
2010;DHT22;1008;47.404;8.502;2022-07-10T07:12:22;21.50;99.90
2010;DHT22;1008;47.404;8.502;2022-07-10T07:14:48;21.40;99.90
2010;DHT22;1008;47.404;8.502;2022-07-10T07:17:16;21.50;99.90
2010;DHT22;1008;47.404;8.502;2022-07-10T07:19:48;21.70;99.90
2010;DHT22;1008;47.404;8.502;2022-07-10T07:22:32;21.40;99.90
2010;DHT22;1008;47.404;8.502;2022-07-10T07:25:16;21.50;99.90
2010;DHT22;1008;47.404;8.502;2022-07-10T07:27:43;21.70;99.90
2010;DHT22;1008;47.404;8.502;2022-07-10T07:30:12;21.70;99.90
2010;DHT22;1008;47.404;8.502;2022-07-10T07:32:42;21.60;99.90
2010;DHT22;1008;47.404;8.502;2022-07-10T07:35:10;21.40;99.90
2010;DHT22;1008;47.404;8.502;2022-07-10T07:37:38;21.40;99.90
2010;DHT22;1008;47.404;8.502;2022-07-10T07:40:07;21.50;99.90
2010;DHT22;1008;47.404;8.502;2022-07-10T07:42:34;21.70;99.90
2010;DHT22;1008;47.404;8.502;2022-07-10T07:45:01;21.70;99.90
2010;DHT22;1008;47.404;8.502;2022-07-10T07:47:30;21.60;99.90
2010;DHT22;1008;47.404;8.502;2022-07-10T07:50:01;21.80;99.90
2010;DHT22;1008;47.404;8.502;2022-07-10T07:52:28;21.90;99.90
2010;DHT22;1008;47.404;8.502;2022-07-10T07:54:56;22.20;99.90
2010;DHT22;1008;47.404;8.502;2022-07-10T07:57:23;22.40;99.90
2010;DHT22;1008;47.404;8.502;2022-07-10T07:59:50;22.60;99.90
2010;DHT22;1008;47.404;8.502;2022-07-10T08:02:16;22.40;99.90
2010;DHT22;1008;47.404;8.502;2022-07-10T08:04:43;22.40;99.90
2010;DHT22;1008;47.404;8.502;2022-07-10T08:07:11;22.40;99.90
2010;DHT22;1008;47.404;8.502;2022-07-10T08:09:38;22.60;99.90
2010;DHT22;1008;47.404;8.502;2022-07-10T08:12:05;22.80;99.90
2010;DHT22;1008;47.404;8.502;2022-07-10T08:14:32;23.00;99.90
2010;DHT22;1008;47.404;8.502;2022-07-10T08:16:59;23.20;99.90
2010;DHT22;1008;47.404;8.502;2022-07-10T08:19:26;23.40;99.90
2010;DHT22;1008;47.404;8.502;2022-07-10T08:21:52;23.50;99.90
2010;DHT22;1008;47.404;8.502;2022-07-10T08:24:20;23.60;99.90
2010;DHT22;1008;47.404;8.502;2022-07-10T08:26:47;23.20;99.90
2010;DHT22;1008;47.404;8.502;2022-07-10T08:29:14;23.10;99.90
2010;DHT22;1008;47.404;8.502;2022-07-10T08:31:41;23.30;99.90
2010;DHT22;1008;47.404;8.502;2022-07-10T08:34:08;23.30;99.90
2010;DHT22;1008;47.404;8.502;2022-07-10T08:36:35;23.30;99.90
2010;DHT22;1008;47.404;8.502;2022-07-10T08:39:01;23.00;99.90
2010;DHT22;1008;47.404;8.502;2022-07-10T08:41:31;23.20;99.90
2010;DHT22;1008;47.404;8.502;2022-07-10T08:44:00;23.40;99.90
2010;DHT22;1008;47.404;8.502;2022-07-10T08:46:27;23.30;99.90
2010;DHT22;1008;47.404;8.502;2022-07-10T08:48:59;23.30;99.90
2010;DHT22;1008;47.404;8.502;2022-07-10T08:51:35;23.60;99.90
2010;DHT22;1008;47.404;8.502;2022-07-10T08:54:04;23.50;99.90
2010;DHT22;1008;47.404;8.502;2022-07-10T08:56:34;23.60;99.90
2010;DHT22;1008;47.404;8.502;2022-07-10T08:59:02;23.70;99.90
2010;DHT22;1008;47.404;8.502;2022-07-10T09:01:30;24.00;99.90
2010;DHT22;1008;47.404;8.502;2022-07-10T09:03:57;24.20;99.90
2010;DHT22;1008;47.404;8.502;2022-07-10T09:06:24;24.10;99.90
2010;DHT22;1008;47.404;8.502;2022-07-10T09:08:59;24.20;99.90
2010;DHT22;1008;47.404;8.502;2022-07-10T09:11:26;24.30;99.90
2010;DHT22;1008;47.404;8.502;2022-07-10T09:13:57;24.30;99.90
2010;DHT22;1008;47.404;8.502;2022-07-10T09:16:25;24.60;99.90
2010;DHT22;1008;47.404;8.502;2022-07-10T09:18:52;24.60;99.90
2010;DHT22;1008;47.404;8.502;2022-07-10T09:21:19;24.30;99.90
2010;DHT22;1008;47.404;8.502;2022-07-10T09:23:46;24.30;99.90
2010;DHT22;1008;47.404;8.502;2022-07-10T09:26:14;24.30;99.90
2010;DHT22;1008;47.404;8.502;2022-07-10T09:28:41;24.20;99.90
2010;DHT22;1008;47.404;8.502;2022-07-10T09:31:09;24.50;99.90
2010;DHT22;1008;47.404;8.502;2022-07-10T09:33:35;24.50;99.90
2010;DHT22;1008;47.404;8.502;2022-07-10T09:36:04;24.40;99.90
2010;DHT22;1008;47.404;8.502;2022-07-10T09:38:54;24.20;99.90
2010;DHT22;1008;47.404;8.502;2022-07-10T09:41:24;24.10;99.90
2010;DHT22;1008;47.404;8.502;2022-07-10T09:43:53;23.90;99.90
2010;DHT22;1008;47.404;8.502;2022-07-10T09:46:24;24.00;99.90
2010;DHT22;1008;47.404;8.502;2022-07-10T09:49:05;24.40;99.90
2010;DHT22;1008;47.404;8.502;2022-07-10T09:51:33;24.70;99.90
2010;DHT22;1008;47.404;8.502;2022-07-10T09:54:02;25.10;99.90
2010;DHT22;1008;47.404;8.502;2022-07-10T09:56:34;25.30;99.90
2010;DHT22;1008;47.404;8.502;2022-07-10T09:59:06;25.30;99.90
2010;DHT22;1008;47.404;8.502;2022-07-10T10:01:36;25.10;99.90
2010;DHT22;1008;47.404;8.502;2022-07-10T10:04:04;24.70;99.90
2010;DHT22;1008;47.404;8.502;2022-07-10T10:06:33;24.90;99.90
2010;DHT22;1008;47.404;8.502;2022-07-10T10:09:04;25.20;99.90
2010;DHT22;1008;47.404;8.502;2022-07-10T10:11:35;25.80;99.90
2010;DHT22;1008;47.404;8.502;2022-07-10T10:14:03;26.30;99.90
2010;DHT22;1008;47.404;8.502;2022-07-10T10:16:33;26.40;99.90
2010;DHT22;1008;47.404;8.502;2022-07-10T10:19:03;26.50;99.90
2010;DHT22;1008;47.404;8.502;2022-07-10T10:21:47;26.60;99.90
2010;DHT22;1008;47.404;8.502;2022-07-10T10:24:15;26.50;99.90
2010;DHT22;1008;47.404;8.502;2022-07-10T10:26:43;26.10;99.90
2010;DHT22;1008;47.404;8.502;2022-07-10T10:29:10;26.20;99.90
2010;DHT22;1008;47.404;8.502;2022-07-10T10:31:37;26.40;99.90
2010;DHT22;1008;47.404;8.502;2022-07-10T10:34:07;26.50;99.90
2010;DHT22;1008;47.404;8.502;2022-07-10T10:36:44;26.60;99.90
2010;DHT22;1008;47.404;8.502;2022-07-10T10:39:12;27.10;99.90
2010;DHT22;1008;47.404;8.502;2022-07-10T10:41:41;26.90;97.60
2010;DHT22;1008;47.404;8.502;2022-07-10T10:44:25;26.90;99.90
2010;DHT22;1008;47.404;8.502;2022-07-10T10:47:05;27.00;99.90
2010;DHT22;1008;47.404;8.502;2022-07-10T10:49:53;27.10;99.30
2010;DHT22;1008;47.404;8.502;2022-07-10T10:52:22;26.70;98.90
2010;DHT22;1008;47.404;8.502;2022-07-10T10:55:03;26.70;99.90
2010;DHT22;1008;47.404;8.502;2022-07-10T10:57:43;26.80;97.90
2010;DHT22;1008;47.404;8.502;2022-07-10T11:00:32;27.00;98.00
2010;DHT22;1008;47.404;8.502;2022-07-10T11:03:19;27.20;98.00
2010;DHT22;1008;47.404;8.502;2022-07-10T11:05:49;27.40;96.60
2010;DHT22;1008;47.404;8.502;2022-07-10T11:08:40;27.20;95.90
2010;DHT22;1008;47.404;8.502;2022-07-10T11:11:38;26.50;95.70
2010;DHT22;1008;47.404;8.502;2022-07-10T11:14:08;26.30;98.60
2010;DHT22;1008;47.404;8.502;2022-07-10T11:16:35;26.60;99.10
2010;DHT22;1008;47.404;8.502;2022-07-10T11:19:04;26.70;98.90
2010;DHT22;1008;47.404;8.502;2022-07-10T11:21:45;26.90;98.00
2010;DHT22;1008;47.404;8.502;2022-07-10T11:24:24;26.90;96.50
2010;DHT22;1008;47.404;8.502;2022-07-10T11:27:02;27.40;96.20
2010;DHT22;1008;47.404;8.502;2022-07-10T11:29:36;27.30;95.10
2010;DHT22;1008;47.404;8.502;2022-07-10T11:32:04;26.80;93.90
2010;DHT22;1008;47.404;8.502;2022-07-10T11:34:35;26.60;96.30
2010;DHT22;1008;47.404;8.502;2022-07-10T11:37:03;26.80;92.20
2010;DHT22;1008;47.404;8.502;2022-07-10T11:39:39;26.70;91.60
2010;DHT22;1008;47.404;8.502;2022-07-10T11:42:06;26.70;92.20
2010;DHT22;1008;47.404;8.502;2022-07-10T11:44:33;26.40;91.90
2010;DHT22;1008;47.404;8.502;2022-07-10T11:47:00;26.00;93.30
2010;DHT22;1008;47.404;8.502;2022-07-10T11:49:28;25.60;92.80
2010;DHT22;1008;47.404;8.502;2022-07-10T11:52:01;25.60;92.80
2010;DHT22;1008;47.404;8.502;2022-07-10T11:54:30;25.50;93.50
2010;DHT22;1008;47.404;8.502;2022-07-10T11:57:04;25.90;96.80
2010;DHT22;1008;47.404;8.502;2022-07-10T11:59:32;26.50;96.00
2010;DHT22;1008;47.404;8.502;2022-07-10T12:02:00;27.00;94.60
2010;DHT22;1008;47.404;8.502;2022-07-10T12:04:29;26.90;92.70
2010;DHT22;1008;47.404;8.502;2022-07-10T12:06:57;26.40;92.40
2010;DHT22;1008;47.404;8.502;2022-07-10T12:09:23;26.60;95.90
2010;DHT22;1008;47.404;8.502;2022-07-10T12:12:00;26.70;93.30
2010;DHT22;1008;47.404;8.502;2022-07-10T12:14:27;27.10;92.20
2010;DHT22;1008;47.404;8.502;2022-07-10T12:16:54;27.20;91.60
2010;DHT22;1008;47.404;8.502;2022-07-10T12:19:24;27.20;90.60
2010;DHT22;1008;47.404;8.502;2022-07-10T12:21:53;27.00;90.50
2010;DHT22;1008;47.404;8.502;2022-07-10T12:24:20;26.90;90.50
2010;DHT22;1008;47.404;8.502;2022-07-10T12:26:47;27.40;94.00
2010;DHT22;1008;47.404;8.502;2022-07-10T12:29:21;27.70;91.50
2010;DHT22;1008;47.404;8.502;2022-07-10T12:31:49;27.70;87.50
2010;DHT22;1008;47.404;8.502;2022-07-10T12:34:17;27.40;88.40
2010;DHT22;1008;47.404;8.502;2022-07-10T12:36:48;27.10;89.10
2010;DHT22;1008;47.404;8.502;2022-07-10T12:39:17;26.80;91.40
2010;DHT22;1008;47.404;8.502;2022-07-10T12:41:54;27.20;91.20
2010;DHT22;1008;47.404;8.502;2022-07-10T12:44:38;27.80;93.00
2010;DHT22;1008;47.404;8.502;2022-07-10T12:47:07;28.30;90.80
2010;DHT22;1008;47.404;8.502;2022-07-10T12:49:48;28.70;88.90
2010;DHT22;1008;47.404;8.502;2022-07-10T12:52:22;28.90;79.70
2010;DHT22;1008;47.404;8.502;2022-07-10T12:55:05;28.50;78.40
2010;DHT22;1008;47.404;8.502;2022-07-10T12:57:32;27.40;80.90
2010;DHT22;1008;47.404;8.502;2022-07-10T13:00:05;27.30;82.40
2010;DHT22;1008;47.404;8.502;2022-07-10T13:02:32;27.10;82.00
2010;DHT22;1008;47.404;8.502;2022-07-10T13:04:59;27.10;85.60
2010;DHT22;1008;47.404;8.502;2022-07-10T13:07:29;27.20;87.50
2010;DHT22;1008;47.404;8.502;2022-07-10T13:09:58;27.10;84.20
2010;DHT22;1008;47.404;8.502;2022-07-10T13:12:25;26.90;83.40
2010;DHT22;1008;47.404;8.502;2022-07-10T13:14:52;26.90;86.20
2010;DHT22;1008;47.404;8.502;2022-07-10T13:17:20;27.40;81.60
2010;DHT22;1008;47.404;8.502;2022-07-10T13:19:47;27.00;81.30
2010;DHT22;1008;47.404;8.502;2022-07-10T13:22:14;26.80;81.30
2010;DHT22;1008;47.404;8.502;2022-07-10T13:24:40;26.90;85.20
2010;DHT22;1008;47.404;8.502;2022-07-10T13:27:08;27.10;80.60
2010;DHT22;1008;47.404;8.502;2022-07-10T13:29:35;27.40;78.40
2010;DHT22;1008;47.404;8.502;2022-07-10T13:32:02;27.30;78.40
2010;DHT22;1008;47.404;8.502;2022-07-10T13:34:30;27.10;78.30
2010;DHT22;1008;47.404;8.502;2022-07-10T13:36:56;27.30;77.30
2010;DHT22;1008;47.404;8.502;2022-07-10T13:39:24;27.40;78.00
2010;DHT22;1008;47.404;8.502;2022-07-10T13:41:51;27.40;77.40
2010;DHT22;1008;47.404;8.502;2022-07-10T13:44:17;27.30;77.20
2010;DHT22;1008;47.404;8.502;2022-07-10T13:46:45;27.70;76.60
2010;DHT22;1008;47.404;8.502;2022-07-10T13:49:12;28.00;76.50
2010;DHT22;1008;47.404;8.502;2022-07-10T13:51:40;28.20;73.20
2010;DHT22;1008;47.404;8.502;2022-07-10T13:54:07;28.00;73.00
2010;DHT22;1008;47.404;8.502;2022-07-10T13:56:34;27.90;72.50
2010;DHT22;1008;47.404;8.502;2022-07-10T13:59:01;27.90;74.50
2010;DHT22;1008;47.404;8.502;2022-07-10T14:01:28;28.10;76.20
2010;DHT22;1008;47.404;8.502;2022-07-10T14:03:55;28.40;74.50
2010;DHT22;1008;47.404;8.502;2022-07-10T14:06:21;28.20;74.20
2010;DHT22;1008;47.404;8.502;2022-07-10T14:08:49;28.10;74.70
2010;DHT22;1008;47.404;8.502;2022-07-10T14:11:16;28.00;72.90
2010;DHT22;1008;47.404;8.502;2022-07-10T14:13:44;28.00;72.90
2010;DHT22;1008;47.404;8.502;2022-07-10T14:16:11;28.00;73.10
2010;DHT22;1008;47.404;8.502;2022-07-10T14:18:38;28.10;74.00
2010;DHT22;1008;47.404;8.502;2022-07-10T14:21:07;27.70;73.00
2010;DHT22;1008;47.404;8.502;2022-07-10T14:23:36;27.30;73.80
2010;DHT22;1008;47.404;8.502;2022-07-10T14:26:05;27.00;76.10
2010;DHT22;1008;47.404;8.502;2022-07-10T14:28:32;26.90;76.10
2010;DHT22;1008;47.404;8.502;2022-07-10T14:31:00;27.10;77.00
2010;DHT22;1008;47.404;8.502;2022-07-10T14:33:29;27.10;77.70
2010;DHT22;1008;47.404;8.502;2022-07-10T14:35:56;27.00;79.30
2010;DHT22;1008;47.404;8.502;2022-07-10T14:38:23;27.10;78.50
2010;DHT22;1008;47.404;8.502;2022-07-10T14:40:50;27.10;80.70
2010;DHT22;1008;47.404;8.502;2022-07-10T14:43:19;27.10;78.80
2010;DHT22;1008;47.404;8.502;2022-07-10T14:45:46;27.30;82.20
2010;DHT22;1008;47.404;8.502;2022-07-10T14:48:14;27.60;79.40
2010;DHT22;1008;47.404;8.502;2022-07-10T14:50:40;28.10;79.30
2010;DHT22;1008;47.404;8.502;2022-07-10T14:53:07;28.10;77.60
2010;DHT22;1008;47.404;8.502;2022-07-10T14:55:36;27.50;76.90
2010;DHT22;1008;47.404;8.502;2022-07-10T14:58:03;26.90;79.10
2010;DHT22;1008;47.404;8.502;2022-07-10T15:00:31;27.00;78.10
2010;DHT22;1008;47.404;8.502;2022-07-10T15:02:59;27.20;78.90
2010;DHT22;1008;47.404;8.502;2022-07-10T15:05:26;27.40;78.80
2010;DHT22;1008;47.404;8.502;2022-07-10T15:07:52;27.30;77.20
2010;DHT22;1008;47.404;8.502;2022-07-10T15:10:19;27.10;76.80
2010;DHT22;1008;47.404;8.502;2022-07-10T15:12:46;27.10;78.30
2010;DHT22;1008;47.404;8.502;2022-07-10T15:15:13;27.00;80.30
2010;DHT22;1008;47.404;8.502;2022-07-10T15:17:41;27.20;80.00
2010;DHT22;1008;47.404;8.502;2022-07-10T15:20:09;27.30;79.30
2010;DHT22;1008;47.404;8.502;2022-07-10T15:22:35;27.60;79.80
2010;DHT22;1008;47.404;8.502;2022-07-10T15:25:03;27.50;76.90
2010;DHT22;1008;47.404;8.502;2022-07-10T15:27:30;27.70;79.10
2010;DHT22;1008;47.404;8.502;2022-07-10T15:29:57;27.80;77.80
2010;DHT22;1008;47.404;8.502;2022-07-10T15:32:24;27.80;78.50
2010;DHT22;1008;47.404;8.502;2022-07-10T15:34:52;27.80;76.00
2010;DHT22;1008;47.404;8.502;2022-07-10T15:37:18;27.60;76.80
2010;DHT22;1008;47.404;8.502;2022-07-10T15:39:45;27.70;80.60
2010;DHT22;1008;47.404;8.502;2022-07-10T15:42:12;28.00;78.10
2010;DHT22;1008;47.404;8.502;2022-07-10T15:44:39;27.90;74.30
2010;DHT22;1008;47.404;8.502;2022-07-10T15:47:06;27.60;75.70
2010;DHT22;1008;47.404;8.502;2022-07-10T15:49:33;27.50;74.50
2010;DHT22;1008;47.404;8.502;2022-07-10T15:52:02;27.40;75.60
2010;DHT22;1008;47.404;8.502;2022-07-10T15:54:28;27.40;75.10
2010;DHT22;1008;47.404;8.502;2022-07-10T15:56:55;27.40;74.90
2010;DHT22;1008;47.404;8.502;2022-07-10T15:59:22;27.40;75.70
2010;DHT22;1008;47.404;8.502;2022-07-10T16:01:50;27.80;77.70
2010;DHT22;1008;47.404;8.502;2022-07-10T16:04:17;28.10;73.40
2010;DHT22;1008;47.404;8.502;2022-07-10T16:06:44;28.20;74.50
2010;DHT22;1008;47.404;8.502;2022-07-10T16:09:12;28.40;76.10